Winthrop, MN (55396)

8:53 PM CST on December 05, 2016 (GMT -0600)
Arlington Cty Road 9 | | Change Station

Elev 984 ft 44.60 °N, 94.09 °W | Updated 8 minutes ago

Overcast
Overcast
39.4 °F
Feels Like 34 °F
N
7.8
Wind Variable Wind from SSW

Today
High -- | Low -- °F
--% Chance of Precip.
Yesterday
High -- | Low -- °F
Precip. -- in
Pressure 29.64 in
Visibility 10.0 miles
Clouds Overcast 2500 ft
Windchill 34 °F
Dew Point 36 °F
Humidity 89%
Rainfall in
Snow Depth Not available.
7:38 AM 4:37 PM
Waxing Crescent, 37% visible
METAR KULM 060234Z AUTO 24018G21KT 10SM OVC025 05/01 A2964 RMK AO2
Pressure 29.64 in
Visibility 10.0 miles
Clouds Overcast 2500 ft
Windchill 34 °F
Dew Point 36 °F
Humidity 89%
Rainfall in
Snow Depth Not available.
7:38 AM 4:37 PM
Waxing Crescent, 37% visible
METAR KULM 060234Z AUTO 24018G21KT 10SM OVC025 05/01 A2964 RMK AO2

10-Day Weather Forecast

Almanac

Astronomy

Dec. 05, 2016 Rise Set
Actual Time
Civil Twilight
Nautical Twilight
Astronomical Twilight
Moon
Length of Visible Light
Length of Day
Tomorrow will be .
, % of the Moon is Illuminated

Today's Extremes

State Highs State Lows

Community

WunderPhotos

Upload Photos

1,955,908 photos uploaded!

WunderBlog® & News

Nearby

Air Quality

  Air Quality AQ Index Pollutant
Not available.

Snow Depth

Station Depth Elevation

Earthquake Activity

City Distance Mag. Time & Date
Minimum magnitude displayed is 2.5.

Coastal Water Temperatures

Place Temperature

Stations

Nearby Weather Stations

Station Location Temp. Windchill Dew Point Humidity Wind Precip. Elev Updated Type
                   

Watches & Warnings

There are currently no watches in effect.